Time;durP1;ratioP1;P1;durP2;ratioP2;P2;SDS_P1;SDS_P2;PMS_P1;PMS_P2;Temp;Humidity;BMP_temperature;BMP_pressure;BME280_temperature;BME280_humidity;BME280_pressure;Samples;Min_cycle;Max_cycle;Signal;HPM_P1;HPM_P2
2022/03/12 00:00:43;;;;;;;4.57;2.35;;;20.30;38.80;;;;;;4994719;28;20486;-59
2022/03/12 00:03:10;;;;;;;4.43;2.38;;;20.30;38.80;;;;;;4996503;28;20049;-59
2022/03/12 00:05:47;;;;;;;4.13;2.33;;;20.30;38.80;;;;;;4997396;28;20089;-59
2022/03/12 00:08:13;;;;;;;4.10;2.30;;;20.30;38.80;;;;;;4996908;28;20069;-59
2022/03/12 00:10:43;;;;;;;4.05;1.95;;;20.30;38.80;;;;;;4996814;28;20487;-58
2022/03/12 00:13:08;;;;;;;4.30;2.20;;;20.30;38.70;;;;;;4997175;28;20485;-59
2022/03/12 00:15:37;;;;;;;3.95;2.38;;;20.30;38.70;;;;;;4997394;28;20041;-59
2022/03/12 00:18:03;;;;;;;3.67;2.28;;;20.20;38.60;;;;;;4995947;28;20046;-59
2022/03/12 00:20:29;;;;;;;4.13;2.45;;;20.30;38.70;;;;;;4997166;28;20176;-59
2022/03/12 00:22:56;;;;;;;4.35;2.10;;;20.20;38.60;;;;;;4997078;28;20039;-59
2022/03/12 00:25:24;;;;;;;4.57;2.60;;;20.20;38.50;;;;;;4995956;28;20050;-59
2022/03/12 00:27:51;;;;;;;5.30;2.45;;;20.20;38.60;;;;;;4997117;28;20164;-59
2022/03/12 00:30:24;;;;;;;4.70;2.55;;;20.20;38.60;;;;;;4996393;28;20460;-59
2022/03/12 00:32:50;;;;;;;4.07;2.40;;;20.20;38.60;;;;;;4996581;28;20073;-59
2022/03/12 00:35:16;;;;;;;4.00;2.40;;;20.20;38.60;;;;;;4996607;28;20066;-59
2022/03/12 00:37:42;;;;;;;4.28;2.40;;;20.20;38.60;;;;;;4996674;28;20043;-60
2022/03/12 00:40:08;;;;;;;4.07;2.50;;;20.20;38.60;;;;;;4995747;28;20057;-59
2022/03/12 00:42:33;;;;;;;5.40;2.40;;;20.10;38.60;;;;;;4996585;28;20038;-59
2022/03/12 00:44:59;;;;;;;4.63;2.55;;;20.10;38.60;;;;;;4996430;28;20049;-59
2022/03/12 00:47:24;;;;;;;5.43;2.75;;;20.10;38.60;;;;;;4995451;28;20092;-60
2022/03/12 00:49:50;;;;;;;4.25;2.30;;;20.10;38.60;;;;;;4996602;28;20042;-60
2022/03/12 00:52:18;;;;;;;4.00;2.13;;;20.10;38.60;;;;;;4995645;28;20046;-59
2022/03/12 00:54:44;;;;;;;;;;;20.10;38.50;;;;;;4996925;28;20038;-60
2022/03/12 00:57:11;;;;;;;6.47;2.92;;;20.10;38.50;;;;;;4996224;28;19972;-59
2022/03/12 00:59:42;;;;;;;3.85;2.25;;;20.10;38.60;;;;;;4995386;28;20105;-59
2022/03/12 01:02:09;;;;;;;4.70;2.33;;;20.10;38.50;;;;;;4996127;28;20050;-59
2022/03/12 01:04:35;;;;;;;5.57;2.58;;;20.00;38.40;;;;;;4996444;28;20070;-59
2022/03/12 01:07:00;;;;;;;5.18;2.45;;;20.10;38.40;;;;;;4994226;28;20046;-59
2022/03/12 01:09:25;;;;;;;4.25;2.20;;;20.00;38.50;;;;;;4995648;28;20096;-59
2022/03/12 01:11:51;;;;;;;5.38;2.53;;;20.10;38.50;;;;;;4995659;28;20050;-59
2022/03/12 01:14:16;;;;;;;4.45;2.33;;;20.00;38.40;;;;;;4994845;28;20130;-59
2022/03/12 01:16:42;;;;;;;4.68;2.63;;;20.00;38.40;;;;;;4996237;28;20046;-59
2022/03/12 01:19:08;;;;;;;4.82;2.58;;;20.00;38.40;;;;;;4996014;28;20137;-60
2022/03/12 01:21:34;;;;;;;5.50;2.30;;;20.00;38.40;;;;;;4995299;28;20034;-59
2022/03/12 01:23:59;;;;;;;4.22;2.65;;;20.00;38.40;;;;;;4995635;28;20446;-59
2022/03/12 01:26:25;;;;;;;3.85;2.50;;;20.00;38.40;;;;;;4995505;28;20069;-59
2022/03/12 01:28:50;;;;;;;4.13;2.45;;;20.00;38.50;;;;;;4994705;28;20042;-60
2022/03/12 01:31:16;;;;;;;4.10;2.20;;;20.00;38.50;;;;;;4995396;28;20050;-59
2022/03/12 01:33:41;;;;;;;4.15;2.30;;;19.90;38.40;;;;;;4995708;28;20042;-59
2022/03/12 01:36:07;;;;;;;4.15;2.28;;;20.00;38.40;;;;;;4994647;28;20443;-59
2022/03/12 01:38:49;;;;;;;3.78;2.25;;;19.90;38.30;;;;;;4995166;28;20414;-59
2022/03/12 01:41:22;;;;;;;4.22;2.38;;;19.90;38.30;;;;;;4995405;28;20053;-60
2022/03/12 01:43:49;;;;;;;4.75;2.22;;;19.90;38.30;;;;;;4994899;28;20042;-60
2022/03/12 01:46:14;;;;;;;4.22;2.45;;;19.90;38.30;;;;;;4995264;28;20493;-59
2022/03/12 01:48:47;;;;;;;3.95;2.40;;;19.90;38.30;;;;;;4994533;28;20080;-60
2022/03/12 01:51:13;;;;;;;4.32;2.40;;;19.90;38.30;;;;;;4995304;28;20061;-59
2022/03/12 01:53:39;;;;;;;4.65;2.38;;;19.90;38.30;;;;;;4995194;28;20096;-59
2022/03/12 01:56:04;;;;;;;5.07;2.42;;;19.90;38.30;;;;;;4994331;28;20133;-59
2022/03/12 01:58:30;;;;;;;4.55;2.35;;;19.90;38.30;;;;;;4995499;28;20042;-59
2022/03/12 02:00:57;;;;;;;4.00;2.30;;;19.90;38.30;;;;;;4995310;28;20062;-59
2022/03/12 02:03:28;;;;;;;4.18;2.25;;;19.80;38.20;;;;;;4994284;28;20046;-59
2022/03/12 02:05:54;;;;;;;5.20;2.60;;;19.80;38.30;;;;;;4995419;28;20082;-60
2022/03/12 02:08:20;;;;;;;5.50;2.38;;;19.90;38.40;;;;;;4994461;28;20047;-59
2022/03/12 02:10:47;;;;;;;4.28;2.45;;;19.80;38.30;;;;;;4994192;28;20046;-60
2022/03/12 02:13:13;;;;;;;3.50;1.95;;;19.90;38.30;;;;;;4994585;28;20510;-60
2022/03/12 02:15:38;;;;;;;3.67;2.53;;;19.90;38.30;;;;;;4995100;28;20082;-60
2022/03/12 02:18:04;;;;;;;3.72;2.00;;;19.90;38.30;;;;;;4993784;28;20046;-59
2022/03/12 02:20:29;;;;;;;4.93;2.50;;;19.90;38.30;;;;;;4994680;28;20469;-60
2022/03/12 02:22:55;;;;;;;4.97;2.63;;;19.90;38.30;;;;;;4994154;28;20042;-59
2022/03/12 02:25:28;;;;;;;3.65;2.30;;;19.80;38.30;;;;;;4993918;28;20394;-59
2022/03/12 02:27:54;;;;;;;4.93;2.10;;;19.80;38.20;;;;;;4994925;28;20054;-59
2022/03/12 02:30:20;;;;;;;4.55;2.20;;;19.80;38.20;;;;;;4994229;28;20057;-59
2022/03/12 02:32:46;;;;;;;4.32;2.55;;;19.90;38.30;;;;;;4993755;28;20069;-59
2022/03/12 02:35:12;;;;;;;4.53;2.50;;;19.90;38.30;;;;;;4994238;28;20046;-59
2022/03/12 02:37:42;;;;;;;3.78;2.35;;;19.90;38.30;;;;;;4994665;28;20046;-59
2022/03/12 02:40:09;;;;;;;4.55;2.10;;;19.90;38.30;;;;;;4993594;28;20486;-59
2022/03/12 02:42:36;;;;;;;4.73;2.60;;;19.90;38.20;;;;;;4994419;28;20068;-59
2022/03/12 02:45:04;;;;;;;3.60;2.15;;;19.90;38.20;;;;;;4993436;28;20042;-59
2022/03/12 02:47:30;;;;;;;3.83;2.38;;;19.90;38.20;;;;;;4994224;28;20058;-59
2022/03/12 02:50:03;;;;;;;4.50;2.40;;;19.90;38.20;;;;;;4994275;28;20054;-59
2022/03/12 02:52:29;;;;;;;3.60;2.20;;;19.90;38.20;;;;;;4993966;28;20046;-59
2022/03/12 02:54:57;;;;;;;3.35;1.92;;;20.00;38.20;;;;;;4992842;28;20402;-59
2022/03/12 02:57:27;;;;;;;4.95;2.33;;;19.90;38.20;;;;;;4993770;28;20512;-59
2022/03/12 02:59:54;;;;;;;3.97;2.17;;;19.90;38.10;;;;;;4993596;28;20138;-59
2022/03/12 03:02:39;;;;;;;4.32;2.33;;;20.00;38.20;;;;;;4992321;28;20093;-59
2022/03/12 03:05:14;;;;;;;3.30;1.83;;;20.00;38.20;;;;;;4993524;28;20054;-59
2022/03/12 03:07:40;;;;;;;4.68;2.30;;;20.00;38.10;;;;;;4992242;28;20038;-59
2022/03/12 03:10:06;;;;;;;5.53;2.20;;;20.00;38.10;;;;;;4993639;28;20046;-59
2022/03/12 03:12:34;;;;;;;3.58;2.10;;;20.00;38.00;;;;;;4993693;28;20494;-59
2022/03/12 03:15:00;;;;;;;3.28;2.33;;;20.00;38.00;;;;;;4993173;28;20054;-59
2022/03/12 03:17:28;;;;;;;4.43;2.33;;;20.00;38.00;;;;;;4993299;28;20069;-59
2022/03/12 03:19:54;;;;;;;5.75;2.17;;;20.00;38.10;;;;;;4993746;28;20570;-60
2022/03/12 03:22:20;;;;;;;3.67;2.20;;;20.10;38.10;;;;;;4992927;28;20082;-60
2022/03/12 03:24:45;;;;;;;4.43;2.83;;;20.00;38.00;;;;;;4993791;28;20077;-59
2022/03/12 03:27:11;;;;;;;4.00;2.30;;;20.10;38.00;;;;;;4992773;28;20038;-60
2022/03/12 03:29:36;;;;;;;3.92;2.10;;;20.10;38.00;;;;;;4993746;28;20363;-59
2022/03/12 03:32:02;;;;;;;3.95;2.55;;;20.10;38.00;;;;;;4993501;28;20061;-60
2022/03/12 03:34:29;;;;;;;3.60;1.95;;;20.10;38.10;;;;;;4992805;28;20038;-60
2022/03/12 03:36:55;;;;;;;4.05;2.20;;;20.10;38.10;;;;;;4992346;28;20047;-59
2022/03/12 03:39:21;;;;;;;3.63;2.10;;;20.10;38.10;;;;;;4992828;28;20044;-60
2022/03/12 03:41:46;;;;;;;3.88;2.38;;;20.10;38.80;;;;;;4992745;28;20414;-60
2022/03/12 03:44:12;;;;;;;3.97;1.95;;;20.20;38.10;;;;;;4993173;28;20038;-59
2022/03/12 03:46:38;;;;;;;3.88;2.03;;;20.10;38.00;;;;;;4993316;28;20073;-60
2022/03/12 03:49:04;;;;;;;5.00;2.28;;;20.10;38.00;;;;;;4990977;28;20073;-59
2022/03/12 03:51:30;;;;;;;4.55;2.30;;;20.20;38.10;;;;;;4993468;28;20046;-59
2022/03/12 03:53:55;;;;;;;4.00;2.15;;;20.20;38.10;;;;;;4993415;28;20566;-59
2022/03/12 03:56:21;;;;;;;5.22;2.33;;;20.20;38.10;;;;;;4992444;28;20042;-60
2022/03/12 03:58:47;;;;;;;4.85;2.00;;;20.20;38.00;;;;;;4993191;28;20038;-59
2022/03/12 04:01:17;;;;;;;3.28;2.20;;;20.20;38.00;;;;;;4992873;28;20504;-59
2022/03/12 04:03:49;;;;;;;4.75;2.60;;;20.20;38.10;;;;;;4992646;28;20049;-59
2022/03/12 04:06:16;;;;;;;4.35;2.15;;;20.20;38.00;;;;;;4993006;28;20046;-59
2022/03/12 04:08:42;;;;;;;3.90;2.47;;;20.20;38.00;;;;;;4992850;28;20494;-59
2022/03/12 04:11:08;;;;;;;4.10;2.20;;;20.30;38.10;;;;;;4992054;28;20057;-59
2022/03/12 04:13:33;;;;;;;3.38;2.10;;;20.20;38.10;;;;;;4992998;28;20074;-59
2022/03/12 04:16:00;;;;;;;4.60;2.50;;;20.30;38.10;;;;;;4992951;28;20061;-60
2022/03/12 04:18:26;;;;;;;4.38;2.17;;;20.30;38.10;;;;;;4992165;28;20046;-60
2022/03/12 04:20:51;;;;;;;3.97;2.35;;;20.30;38.00;;;;;;4993211;28;20061;-59
2022/03/12 04:23:21;;;;;;;3.72;2.20;;;20.30;38.00;;;;;;4991815;28;20058;-59
2022/03/12 04:25:47;;;;;;;4.13;2.13;;;20.30;38.00;;;;;;4992850;28;20125;-60
2022/03/12 04:28:13;;;;;;;3.97;2.42;;;20.30;38.00;;;;;;4992841;28;20054;-59
2022/03/12 04:30:39;;;;;;;3.58;2.00;;;20.30;38.00;;;;;;4992378;28;20054;-59
2022/03/12 04:33:07;;;;;;;4.65;2.30;;;20.30;37.90;;;;;;4992542;28;20043;-60
2022/03/12 04:35:34;;;;;;;4.07;1.90;;;20.30;37.90;;;;;;4993289;28;20508;-59
2022/03/12 04:38:00;;;;;;;3.72;2.25;;;20.30;37.80;;;;;;4992045;28;20063;-60
2022/03/12 04:40:26;;;;;;;4.18;2.40;;;20.30;37.80;;;;;;4992692;28;20390;-59
2022/03/12 04:42:52;;;;;;;5.47;2.20;;;20.30;37.80;;;;;;4993291;28;20050;-59
2022/03/12 04:45:25;;;;;;;4.53;2.05;;;20.30;37.80;;;;;;4992045;28;20057;-59
2022/03/12 04:47:50;;;;;;;3.70;2.25;;;20.30;37.80;;;;;;4996323;28;20048;-60
2022/03/12 04:50:17;;;;;;;4.55;2.25;;;20.30;37.80;;;;;;4996237;28;20402;-59
2022/03/12 04:52:44;;;;;;;3.47;1.92;;;20.30;37.80;;;;;;4995659;28;20050;-59
2022/03/12 04:55:11;;;;;;;3.90;2.10;;;20.30;37.80;;;;;;4996150;28;20049;-60
2022/03/12 04:57:37;;;;;;;3.80;2.25;;;20.30;37.80;;;;;;4996485;28;20070;-59
2022/03/12 05:00:06;;;;;;;3.88;2.05;;;20.30;37.80;;;;;;4995659;28;20509;-59
2022/03/12 05:02:32;;;;;;;5.05;2.72;;;20.30;37.80;;;;;;4981539;28;20066;-59
2022/03/12 05:04:57;;;;;;;5.53;2.38;;;20.40;37.90;;;;;;4995034;28;20047;-59
2022/03/12 05:07:24;;;;;;;3.97;2.15;;;20.30;37.80;;;;;;4994776;28;20084;-59
2022/03/12 05:09:50;;;;;;;4.22;2.30;;;20.40;37.80;;;;;;4995845;28;20093;-59
2022/03/12 05:12:17;;;;;;;3.95;2.45;;;20.40;37.80;;;;;;4996037;28;20074;-59
2022/03/12 05:14:44;;;;;;;4.00;2.15;;;20.40;37.80;;;;;;4995344;28;20053;-59
2022/03/12 05:17:10;;;;;;;4.07;2.28;;;20.40;37.90;;;;;;4995547;28;20446;-59
2022/03/12 05:19:36;;;;;;;4.05;2.15;;;20.40;37.90;;;;;;4995388;28;20050;-59
2022/03/12 05:22:03;;;;;;;3.78;2.20;;;20.40;37.80;;;;;;4996068;28;20062;-59
2022/03/12 05:24:28;;;;;;;3.40;2.17;;;20.40;37.80;;;;;;4995912;28;20092;-59
2022/03/12 05:26:54;;;;;;;3.28;2.03;;;20.40;37.80;;;;;;4995306;28;20078;-59
2022/03/12 05:29:21;;;;;;;4.07;2.35;;;20.40;37.80;;;;;;4995607;28;20050;-59
2022/03/12 05:31:47;;;;;;;4.30;2.30;;;20.40;37.90;;;;;;4995980;28;20063;-59
2022/03/12 05:34:12;;;;;;;5.00;2.10;;;20.40;37.80;;;;;;4994870;28;20038;-59
2022/03/12 05:36:38;;;;;;;4.07;2.15;;;20.40;37.80;;;;;;4995447;28;20501;-59
2022/03/12 05:39:03;;;;;;;4.13;2.13;;;20.40;37.70;;;;;;4995390;28;20149;-59
2022/03/12 05:41:29;;;;;;;5.50;2.33;;;20.40;37.80;;;;;;4994801;28;20111;-60
2022/03/12 05:43:56;;;;;;;3.75;2.08;;;20.40;37.90;;;;;;4995731;28;20174;-59
2022/03/12 05:46:21;;;;;;;3.10;2.10;;;20.40;37.80;;;;;;4995286;28;20042;-60
2022/03/12 05:48:47;;;;;;;3.22;2.15;;;20.40;37.80;;;;;;4994649;28;20204;-59
2022/03/12 05:51:13;;;;;;;5.32;2.38;;;20.40;37.70;;;;;;4995250;28;20057;-59
2022/03/12 05:53:39;;;;;;;3.30;2.00;;;20.40;37.60;;;;;;4995163;28;20055;-60
2022/03/12 05:56:04;;;;;;;3.35;2.00;;;20.40;37.60;;;;;;4994456;28;20548;-59
2022/03/12 05:58:35;;;;;;;3.10;2.10;;;20.40;37.60;;;;;;4994328;28;20130;-59
2022/03/12 06:01:01;;;;;;;4.22;2.50;;;20.40;37.70;;;;;;4995226;28;20133;-59
2022/03/12 06:03:26;;;;;;;3.15;1.92;;;20.40;37.70;;;;;;4994364;28;20129;-60
2022/03/12 06:05:58;;;;;;;3.67;2.13;;;20.40;37.60;;;;;;4995266;28;20054;-60
2022/03/12 06:08:24;;;;;;;5.10;2.30;;;20.40;37.60;;;;;;4994892;28;20054;-60
2022/03/12 06:10:54;;;;;;;4.43;2.30;;;20.40;37.60;;;;;;4994475;28;20108;-59
2022/03/12 06:13:23;;;;;;;3.45;2.13;;;20.40;37.60;;;;;;4994890;28;20046;-59
2022/03/12 06:15:52;;;;;;;3.83;2.17;;;20.40;37.60;;;;;;4994270;28;20073;-59
2022/03/12 06:18:18;;;;;;;4.18;2.10;;;20.40;37.60;;;;;;4994459;28;20437;-60
2022/03/12 06:20:44;;;;;;;3.72;1.90;;;20.40;37.60;;;;;;4995041;28;20082;-59
2022/03/12 06:23:09;;;;;;;3.60;2.00;;;20.40;37.60;;;;;;4993581;28;20475;-59
2022/03/12 06:25:35;;;;;;;3.20;2.03;;;20.40;37.60;;;;;;4994615;28;20050;-59
2022/03/12 06:28:03;;;;;;;3.55;2.33;;;20.40;37.60;;;;;;4994732;28;20042;-59
2022/03/12 06:30:29;;;;;;;3.50;1.63;;;20.50;37.70;;;;;;4993839;28;20057;-59
2022/03/12 06:32:57;;;;;;;3.50;2.00;;;20.40;37.70;;;;;;4994684;28;20038;-59
2022/03/12 06:35:25;;;;;;;4.20;2.08;;;20.40;37.60;;;;;;4994326;28;20057;-59
2022/03/12 06:37:50;;;;;;;4.43;2.03;;;20.50;37.70;;;;;;4993749;28;20046;-59
2022/03/12 06:40:16;;;;;;;4.00;2.20;;;20.50;37.70;;;;;;4994345;28;20046;-59
2022/03/12 06:42:42;;;;;;;3.35;2.03;;;20.50;37.70;;;;;;4993366;28;20046;-59
2022/03/12 06:45:08;;;;;;;3.45;2.22;;;20.50;37.70;;;;;;4993510;28;20053;-59
2022/03/12 06:47:35;;;;;;;3.38;2.05;;;20.50;37.70;;;;;;4994228;28;20190;-60
2022/03/12 06:50:00;;;;;;;3.55;2.05;;;20.50;37.70;;;;;;4994386;28;20042;-60
2022/03/12 06:52:27;;;;;;;4.00;1.92;;;20.50;37.70;;;;;;4993084;28;20042;-59
2022/03/12 06:54:53;;;;;;;3.00;2.00;;;20.50;37.70;;;;;;4993148;28;20046;-61
2022/03/12 06:57:19;;;;;;;4.10;2.15;;;20.50;37.60;;;;;;4994100;28;20050;-59
2022/03/12 06:59:44;;;;;;;3.92;2.05;;;20.50;37.70;;;;;;4993449;28;20042;-59
2022/03/12 07:02:10;;;;;;;4.20;2.20;;;20.50;38.40;;;;;;4993826;28;20122;-59
2022/03/12 07:04:36;;;;;;;4.03;2.28;;;20.60;37.80;;;;;;4994262;28;20479;-59
2022/03/12 07:07:01;;;;;;;3.75;2.00;;;20.50;37.70;;;;;;4993514;28;20038;-59
2022/03/12 07:09:27;;;;;;;4.45;1.95;;;20.50;37.70;;;;;;4993313;28;20048;-59
2022/03/12 07:11:56;;;;;;;6.88;2.35;;;20.60;37.80;;;;;;4993879;28;20438;-59
2022/03/12 07:14:21;;;;;;;;;;;20.60;37.80;;;;;;4992130;28;20042;-59
2022/03/12 07:16:47;;;;;;;4.38;2.10;;;20.60;37.90;;;;;;4993667;28;19922;-59
2022/03/12 07:19:12;;;;;;;4.72;2.55;;;20.60;38.00;;;;;;4993194;28;20046;-59
2022/03/12 07:21:38;;;;;;;4.45;2.13;;;20.60;38.20;;;;;;4992722;28;20053;-59
2022/03/12 07:24:04;;;;;;;2.63;1.55;;;20.60;38.00;;;;;;4992306;28;20053;-58
2022/03/12 07:26:29;;;;;;;5.55;2.05;;;20.60;38.00;;;;;;4992777;28;20105;-58
2022/03/12 07:28:55;;;;;;;5.07;1.85;;;20.60;38.20;;;;;;4993700;28;20042;-59
2022/03/12 07:31:22;;;;;;;5.03;2.13;;;20.70;38.60;;;;;;4993412;28;20145;-59
2022/03/12 07:33:48;;;;;;;3.40;2.00;;;20.70;38.70;;;;;;4993037;28;20108;-59
2022/03/12 07:36:13;;;;;;;4.75;2.20;;;20.70;38.80;;;;;;4993342;28;20521;-58
2022/03/12 07:38:39;;;;;;;3.08;1.98;;;20.70;39.00;;;;;;4993393;28;20062;-58
2022/03/12 07:41:04;;;;;;;4.03;2.25;;;20.70;39.10;;;;;;4992568;28;20057;-59
2022/03/12 07:43:30;;;;;;;4.78;2.13;;;20.70;39.20;;;;;;4993565;28;20042;-58
2022/03/12 07:45:57;;;;;;;4.63;2.20;;;20.80;39.30;;;;;;4993470;28;20077;-58
2022/03/12 07:48:23;;;;;;;3.50;2.17;;;20.70;39.30;;;;;;4992280;28;20453;-58
2022/03/12 07:50:49;;;;;;;4.32;2.38;;;20.80;39.40;;;;;;4993356;28;20508;-58
2022/03/12 07:53:14;;;;;;;3.22;1.70;;;20.80;39.40;;;;;;4992942;28;20474;-59
2022/03/12 07:55:40;;;;;;;5.57;2.15;;;20.80;39.30;;;;;;4992473;28;20082;-59
2022/03/12 07:58:06;;;;;;;4.68;2.22;;;20.80;39.30;;;;;;4993211;28;20129;-59
2022/03/12 08:00:31;;;;;;;3.38;1.90;;;20.90;39.40;;;;;;4993256;28;20049;-60
2022/03/12 08:02:57;;;;;;;5.20;2.00;;;20.80;39.30;;;;;;4991326;28;20074;-60
2022/03/12 08:05:24;;;;;;;4.15;2.30;;;20.90;39.40;;;;;;4993047;28;20052;-59
2022/03/12 08:07:52;;;;;;;3.97;2.25;;;20.90;39.40;;;;;;4993370;28;20046;-59
2022/03/12 08:10:17;;;;;;;3.88;2.15;;;20.90;39.40;;;;;;4992204;28;20042;-61
2022/03/12 08:12:44;;;;;;;4.90;2.15;;;21.00;39.30;;;;;;4993152;28;20401;-59
2022/03/12 08:15:12;;;;;;;4.13;2.00;;;21.00;39.30;;;;;;4993001;28;20054;-60
2022/03/12 08:17:38;;;;;;;3.47;2.13;;;21.00;39.30;;;;;;4991506;28;20057;-59
2022/03/12 08:20:07;;;;;;;5.45;2.00;;;21.00;39.30;;;;;;4992900;28;20046;-59
2022/03/12 08:22:34;;;;;;;4.43;2.22;;;21.00;39.50;;;;;;4994318;28;20089;-60
2022/03/12 08:25:00;;;;;;;5.10;2.30;;;21.00;39.50;;;;;;4997192;28;20112;-59
2022/03/12 08:27:25;;;;;;;3.95;1.90;;;21.00;39.50;;;;;;4996719;28;20125;-59
2022/03/12 08:29:51;;;;;;;5.65;2.13;;;21.10;39.60;;;;;;4996215;28;20042;-59
2022/03/12 08:32:16;;;;;;;5.25;2.13;;;21.10;39.60;;;;;;4996743;28;20380;-59
2022/03/12 08:34:42;;;;;;;3.10;1.75;;;21.10;39.70;;;;;;4996644;28;20469;-59
2022/03/12 08:37:09;;;;;;;5.18;2.45;;;21.10;39.70;;;;;;4995742;28;20490;-58
2022/03/12 08:39:35;;;;;;;5.18;1.70;;;21.10;39.70;;;;;;4996355;28;20185;-59
2022/03/12 08:42:01;;;;;;;5.15;2.22;;;21.20;39.80;;;;;;4996558;28;20136;-58
2022/03/12 08:44:26;;;;;;;4.70;2.15;;;21.20;39.80;;;;;;4995633;28;20114;-58
2022/03/12 08:46:52;;;;;;;6.13;1.95;;;21.20;39.70;;;;;;4995332;28;20181;-59
2022/03/12 08:49:18;;;;;;;4.75;2.30;;;21.20;39.80;;;;;;4996127;28;20038;-58
2022/03/12 08:51:43;;;;;;;3.47;2.10;;;21.20;39.70;;;;;;4995724;28;20053;-59
2022/03/12 08:54:09;;;;;;;5.13;2.20;;;21.20;39.70;;;;;;4996204;28;20046;-58
2022/03/12 08:56:35;;;;;;;4.18;1.70;;;21.20;39.60;;;;;;4996434;28;20057;-59
2022/03/12 08:59:02;;;;;;;5.63;2.10;;;21.20;39.50;;;;;;4994223;28;20050;-59
2022/03/12 09:01:27;;;;;;;5.55;2.20;;;21.30;39.60;;;;;;4996284;28;20178;-59
2022/03/12 09:03:53;;;;;;;4.32;2.30;;;21.30;39.60;;;;;;4995031;28;20125;-59
2022/03/12 09:06:19;;;;;;;7.30;2.33;;;21.30;39.50;;;;;;4995408;28;20121;-59
2022/03/12 09:08:45;;;;;;;7.50;2.35;;;21.30;39.40;;;;;;4996290;28;20038;-59
2022/03/12 09:11:11;;;;;;;4.30;2.40;;;21.30;39.30;;;;;;4995675;28;20050;-59
2022/03/12 09:13:36;;;;;;;7.18;2.30;;;21.30;39.30;;;;;;4995614;28;20065;-59
2022/03/12 09:16:02;;;;;;;4.45;2.25;;;21.30;39.20;;;;;;4996205;28;20493;-59
2022/03/12 09:18:28;;;;;;;4.70;2.55;;;21.30;39.20;;;;;;4996224;28;20047;-59
2022/03/12 09:20:54;;;;;;;3.80;2.05;;;21.30;39.30;;;;;;4995428;28;20042;-58
2022/03/12 09:23:20;;;;;;;6.10;2.10;;;21.30;39.30;;;;;;4995819;28;20608;-59
2022/03/12 09:25:47;;;;;;;6.15;2.00;;;21.30;39.30;;;;;;4995088;28;20100;-59
2022/03/12 09:28:13;;;;;;;3.80;1.80;;;21.30;39.40;;;;;;4995733;28;20055;-59
2022/03/12 09:30:38;;;;;;;6.00;2.22;;;21.20;39.40;;;;;;4995925;28;20050;-59
2022/03/12 09:33:05;;;;;;;5.00;2.10;;;21.30;39.40;;;;;;4994430;28;20754;-59
2022/03/12 09:35:31;;;;;;;4.25;2.22;;;21.20;39.50;;;;;;4995543;28;20050;-60
2022/03/12 09:37:58;;;;;;;5.40;2.22;;;21.30;39.50;;;;;;4995771;28;20109;-61
2022/03/12 09:40:23;;;;;;;4.28;2.10;;;21.30;39.50;;;;;;4994234;28;20445;-60
2022/03/12 09:42:49;;;;;;;4.10;2.40;;;21.30;39.70;;;;;;4995824;28;20584;-60
2022/03/12 09:45:15;;;;;;;5.50;2.65;;;21.30;39.80;;;;;;4995403;28;20042;-59
2022/03/12 09:47:42;;;;;;;4.63;2.20;;;21.30;39.80;;;;;;4995029;28;20035;-60
2022/03/12 09:50:08;;;;;;;6.15;2.30;;;21.30;40.00;;;;;;4994833;28;20517;-60
2022/03/12 09:52:34;;;;;;;4.00;2.22;;;21.30;40.00;;;;;;4995581;28;20136;-60
2022/03/12 09:54:59;;;;;;;5.03;2.42;;;21.30;40.00;;;;;;4994508;28;20502;-60
2022/03/12 09:57:25;;;;;;;4.32;2.25;;;21.40;40.10;;;;;;4995266;28;20049;-60
2022/03/12 09:59:50;;;;;;;3.58;2.20;;;21.30;40.10;;;;;;4996535;28;20049;-60
2022/03/12 10:02:16;;;;;;;3.83;2.50;;;21.40;40.20;;;;;;4994164;28;20058;-61
2022/03/12 10:04:43;;;;;;;5.05;2.58;;;21.30;40.20;;;;;;4995269;28;20518;-60
2022/03/12 10:07:09;;;;;;;4.95;2.35;;;21.40;40.20;;;;;;4994771;28;20149;-60
2022/03/12 10:09:35;;;;;;;3.97;2.28;;;21.40;40.30;;;;;;4994237;28;20586;-60
2022/03/12 10:12:01;;;;;;;4.35;2.20;;;21.40;40.40;;;;;;4995274;28;20042;-61
2022/03/12 10:14:27;;;;;;;3.63;2.10;;;21.40;40.40;;;;;;4994326;28;20089;-60
2022/03/12 10:16:53;;;;;;;6.63;2.33;;;21.40;40.50;;;;;;4994468;28;20045;-61
2022/03/12 10:19:19;;;;;;;3.47;1.90;;;21.40;40.50;;;;;;4994715;28;20035;-61
2022/03/12 10:21:45;;;;;;;11.05;2.63;;;21.40;40.60;;;;;;4995087;28;20096;-60
2022/03/12 10:24:12;;;;;;;4.38;2.40;;;21.40;40.70;;;;;;4993535;28;20085;-59
2022/03/12 10:26:38;;;;;;;3.83;2.00;;;21.40;40.70;;;;;;4994675;28;20493;-59
2022/03/12 10:29:04;;;;;;;4.03;2.13;;;21.40;40.70;;;;;;4993609;28;20494;-60
2022/03/12 10:31:30;;;;;;;6.10;2.00;;;21.50;40.80;;;;;;4994122;28;20517;-60
2022/03/12 10:34:25;;;;;;;6.07;2.30;;;21.40;40.80;;;;;;4994583;28;20058;-60
2022/03/12 10:36:53;;;;;;;5.55;2.20;;;21.50;40.80;;;;;;4981192;28;20100;-60
2022/03/12 10:39:36;;;;;;;5.32;2.85;;;21.40;40.80;;;;;;4993978;28;20401;-60
2022/03/12 10:42:04;;;;;;;5.18;2.50;;;21.40;40.80;;;;;;4994483;28;20047;-60
2022/03/12 10:44:40;;;;;;;6.32;2.30;;;21.40;40.90;;;;;;4993281;28;20126;-60
2022/03/12 10:47:19;;;;;;;3.78;2.03;;;21.40;40.90;;;;;;4993843;28;20533;-60
2022/03/12 10:49:59;;;;;;;4.80;2.20;;;21.40;41.00;;;;;;4994376;28;20517;-60
2022/03/12 10:52:27;;;;;;;4.75;2.30;;;21.50;41.10;;;;;;4993570;28;20046;-61
2022/03/12 10:54:53;;;;;;;;;;;21.50;41.10;;;;;;4994591;28;20053;-60
2022/03/12 10:57:19;;;;;;;3.42;1.92;;;21.40;41.10;;;;;;4993157;28;19922;-60
2022/03/12 10:59:45;;;;;;;5.57;2.40;;;21.40;41.10;;;;;;4994037;28;20074;-60
2022/03/12 11:02:10;;;;;;;5.22;2.47;;;21.40;41.20;;;;;;4993911;28;20089;-60
2022/03/12 11:04:36;;;;;;;6.30;2.50;;;21.40;41.20;;;;;;4992207;28;20077;-60
2022/03/12 11:07:22;;;;;;;4.68;2.72;;;21.40;41.30;;;;;;4994051;28;20042;-60
2022/03/12 11:09:48;;;;;;;5.43;2.10;;;21.40;41.40;;;;;;4993803;28;20042;-60
2022/03/12 11:12:30;;;;;;;4.25;2.03;;;21.40;41.30;;;;;;4992857;28;20042;-59
2022/03/12 11:15:15;;;;;;;3.40;2.00;;;21.40;41.40;;;;;;4993936;28;20050;-60
2022/03/12 11:17:48;;;;;;;8.35;2.30;;;21.40;41.50;;;;;;4994022;28;20046;-60
2022/03/12 11:20:20;;;;;;;5.18;2.35;;;21.40;41.40;;;;;;4992964;28;20047;-60
2022/03/12 11:22:50;;;;;;;4.25;2.10;;;21.40;41.50;;;;;;4992735;28;20125;-60
2022/03/12 11:25:20;;;;;;;2.85;1.73;;;21.40;41.60;;;;;;4992867;28;20524;-60
2022/03/12 11:27:49;;;;;;;4.20;2.22;;;21.40;41.60;;;;;;4993851;28;20046;-60
2022/03/12 11:30:16;;;;;;;5.50;2.40;;;21.50;41.70;;;;;;4993296;28;20081;-60
2022/03/12 11:32:44;;;;;;;3.78;2.15;;;21.50;41.70;;;;;;4991472;28;20047;-59
2022/03/12 11:35:11;;;;;;;4.65;2.50;;;21.40;41.70;;;;;;4976099;28;20104;-60
2022/03/12 11:37:38;;;;;;;3.75;2.08;;;21.50;41.80;;;;;;4985052;28;20122;-59
2022/03/12 11:40:09;;;;;;;5.05;2.30;;;21.50;41.80;;;;;;4973232;28;20450;-59
2022/03/12 11:42:36;;;;;;;6.10;1.98;;;21.50;41.80;;;;;;4974713;28;20129;-61
2022/03/12 11:45:04;;;;;;;3.17;2.15;;;21.50;41.80;;;;;;4974172;28;20517;-60
2022/03/12 11:47:33;;;;;;;5.60;2.28;;;21.50;41.90;;;;;;4973155;28;20410;-61
2022/03/12 11:50:01;;;;;;;3.80;1.95;;;21.50;42.00;;;;;;4973967;28;20058;-60
2022/03/12 11:52:27;;;;;;;4.78;2.22;;;21.50;42.00;;;;;;4973886;28;20066;-60
2022/03/12 11:54:54;;;;;;;5.50;2.40;;;21.50;42.00;;;;;;4973160;28;20082;-60
2022/03/12 11:57:21;;;;;;;3.65;1.88;;;21.50;42.10;;;;;;4973722;28;20105;-61
2022/03/12 11:59:46;;;;;;;6.05;1.80;;;21.60;42.20;;;;;;4974097;28;20080;-61
2022/03/12 12:02:24;;;;;;;4.18;2.00;;;21.50;42.20;;;;;;4972809;28;20053;-61
2022/03/12 12:04:53;;;;;;;4.30;2.13;;;21.50;42.20;;;;;;4974150;28;20121;-61
2022/03/12 12:07:20;;;;;;;4.47;1.98;;;21.60;42.30;;;;;;4973677;28;20039;-60
2022/03/12 12:09:45;;;;;;;5.93;2.15;;;21.60;42.30;;;;;;4973297;28;20046;-60
2022/03/12 12:12:14;;;;;;;3.70;2.13;;;21.50;42.30;;;;;;4973435;28;20054;-59
2022/03/12 12:14:43;;;;;;;3.95;2.10;;;21.60;42.40;;;;;;4971546;28;20129;-60
2022/03/12 12:17:09;;;;;;;5.35;2.55;;;21.60;43.20;;;;;;4973539;28;20043;-59
2022/03/12 12:19:34;;;;;;;4.88;2.63;;;21.50;42.40;;;;;;4976375;28;20176;-59
2022/03/12 12:22:01;;;;;;;5.57;2.10;;;21.50;42.40;;;;;;4989818;28;20520;-59
2022/03/12 12:24:29;;;;;;;4.93;2.42;;;21.60;42.60;;;;;;4992402;28;20406;-60
2022/03/12 12:26:58;;;;;;;4.78;2.00;;;21.60;42.80;;;;;;4992972;28;20050;-60
2022/03/12 12:29:46;;;;;;;3.55;2.20;;;21.60;42.80;;;;;;4990340;28;20055;-60
2022/03/12 12:32:16;;;;;;;4.70;2.08;;;21.60;43.00;;;;;;4992576;28;20073;-60
2022/03/12 12:35:10;;;;;;;4.30;1.90;;;21.60;43.00;;;;;;4992808;28;20043;-59
2022/03/12 12:37:46;;;;;;;7.07;2.35;;;21.60;43.10;;;;;;4991954;28;20043;-59
2022/03/12 12:40:29;;;;;;;4.38;1.60;;;21.70;43.20;;;;;;4992729;28;20458;-59
2022/03/12 12:42:56;;;;;;;4.35;2.15;;;21.60;43.20;;;;;;4991953;28;20046;-59
2022/03/12 12:45:24;;;;;;;3.47;1.90;;;21.60;43.20;;;;;;4992811;28;20509;-60
2022/03/12 12:48:08;;;;;;;5.15;2.13;;;21.60;43.20;;;;;;4992955;28;20051;-59